Time;durP1;ratioP1;P1;durP2;ratioP2;P2;SDS_P1;SDS_P2;PMS_P1;PMS_P2;Temp;Humidity;BMP_temperature;BMP_pressure;BME280_temperature;BME280_humidity;BME280_pressure;Samples;Min_cycle;Max_cycle;Signal;HPM_P1;HPM_P2
2022/08/13 00:00:28;;;;;;;1999.90;999.90;;;;;;;19.02;100.00;99977.91;5053455;28;20050;-56
2022/08/13 00:03:14;;;;;;;1999.90;999.90;;;;;;;18.65;100.00;99974.66;5054964;28;20053;-56
2022/08/13 00:06:02;;;;;;;1999.90;999.90;;;;;;;18.88;100.00;99975.16;5053307;28;20059;-55
2022/08/13 00:08:48;;;;;;;1999.90;999.90;;;;;;;18.88;100.00;99970.75;5054160;28;20055;-56
2022/08/13 00:14:37;;;;;;;1999.90;999.90;;;;;;;18.90;100.00;99975.94;5053540;28;20499;-54
2022/08/13 00:17:21;;;;;;;1999.90;999.90;;;;;;;18.78;100.00;99972.16;5056869;28;20056;-55
2022/08/13 00:20:07;;;;;;;1999.90;999.90;;;;;;;18.56;100.00;99967.19;5054207;28;20049;-56
2022/08/13 00:22:54;;;;;;;1999.90;999.90;;;;;;;18.42;100.00;99969.75;5053153;28;20036;-55
2022/08/13 00:25:38;;;;;;;1999.90;999.90;;;;;;;18.63;100.00;99960.59;5056372;28;20103;-54
2022/08/13 00:28:28;;;;;;;1999.90;999.90;;;;;;;18.63;100.00;99962.41;5057262;28;20407;-55
2022/08/13 00:31:12;;;;;;;1999.90;999.90;;;;;;;18.74;100.00;99962.69;5057192;28;20702;-54
2022/08/13 00:33:58;;;;;;;1999.90;999.90;;;;;;;18.73;100.00;99960.13;5055773;28;20481;-56
2022/08/13 00:36:44;;;;;;;1999.90;999.90;;;;;;;18.75;100.00;99963.53;5054912;28;20501;-55
2022/08/13 00:39:29;;;;;;;1999.90;999.90;;;;;;;18.67;100.00;99959.50;5052247;28;20136;-55
2022/08/13 00:42:20;;;;;;;1999.90;999.90;;;;;;;18.50;100.00;99964.03;5050059;28;20125;-54
2022/08/13 00:45:08;;;;;;;1999.90;999.90;;;;;;;18.48;100.00;99963.25;5052098;28;20815;-54
2022/08/13 00:50:58;;;;;;;1999.90;999.90;;;;;;;18.57;100.00;99958.28;5053019;28;20052;-54
2022/08/13 00:53:44;;;;;;;1999.90;999.90;;;;;;;18.65;100.00;99958.75;5054834;28;20063;-55
2022/08/13 00:56:33;;;;;;;1999.90;999.90;;;;;;;18.42;100.00;99956.47;5053549;28;20933;-56
2022/08/13 00:59:17;;;;;;;1999.90;999.90;;;;;;;18.35;100.00;99963.06;5054300;28;20103;-56
2022/08/13 01:02:04;;;;;;;1999.90;999.90;;;;;;;18.24;100.00;99946.91;5053397;28;20122;-55
2022/08/13 01:04:49;;;;;;;1999.90;999.90;;;;;;;18.49;100.00;99946.38;5055441;28;20048;-56
2022/08/13 01:07:37;;;;;;;1999.90;999.90;;;;;;;18.47;100.00;99943.00;5053924;28;20126;-55
2022/08/13 01:10:22;;;;;;;1999.90;999.90;;;;;;;18.40;100.00;99934.53;5065444;28;20174;-55
2022/08/13 01:13:09;;;;;;;1999.90;999.90;;;;;;;18.48;100.00;99934.94;5055551;28;20567;-56
2022/08/13 01:15:54;;;;;;;1999.90;999.90;;;;;;;18.33;100.00;99933.13;5053198;28;20053;-56
2022/08/13 01:18:46;;;;;;;1999.90;999.90;;;;;;;18.22;100.00;99923.13;5053229;28;20106;-56
2022/08/13 01:21:32;;;;;;;1999.90;999.90;;;;;;;18.30;100.00;99925.38;5052920;28;20048;-55
2022/08/13 01:24:16;;;;;;;1999.90;999.90;;;;;;;18.19;100.00;99918.84;5054082;28;20095;-57
2022/08/13 01:27:01;;;;;;;1999.90;999.90;;;;;;;18.41;100.00;99917.66;5052842;28;20145;-53
2022/08/13 01:29:48;;;;;;;1999.90;999.90;;;;;;;18.18;100.00;99903.88;5052887;28;20426;-54
2022/08/13 01:32:37;;;;;;;1999.90;999.90;;;;;;;18.24;100.00;99907.16;5054119;28;20439;-55
2022/08/13 01:35:23;;;;;;;1999.90;999.90;;;;;;;18.27;100.00;99909.63;5053273;28;21266;-57
2022/08/13 01:38:09;;;;;;;1999.90;999.90;;;;;;;18.27;100.00;99910.47;5052585;28;20045;-55
2022/08/13 01:40:54;;;;;;;1999.90;999.90;;;;;;;18.05;100.00;99907.28;5054040;28;20537;-55
2022/08/13 01:43:40;;;;;;;1999.90;999.90;;;;;;;18.22;100.00;99901.91;5053744;28;20056;-54
2022/08/13 01:46:25;;;;;;;1999.90;999.90;;;;;;;18.16;100.00;99900.44;5053041;28;20052;-53
2022/08/13 01:52:12;;;;;;;;;;;;;;;18.16;100.00;99894.28;5054606;28;20057;-54
2022/08/13 01:54:57;;;;;;;1999.90;999.90;;;;;;;18.05;100.00;99891.38;5055177;28;20007;-55
2022/08/13 01:57:44;;;;;;;1999.90;999.90;;;;;;;18.08;100.00;99883.28;5053783;28;20049;-57
2022/08/13 02:00:30;;;;;;;1999.90;999.90;;;;;;;18.29;100.00;99886.53;5051346;28;20076;-53
2022/08/13 02:03:17;;;;;;;1999.90;999.90;;;;;;;18.26;100.00;99887.53;5051541;28;20041;-57
2022/08/13 02:06:02;;;;;;;1999.90;999.90;;;;;;;18.22;100.00;99878.91;5055223;28;20143;-56
2022/08/13 02:08:50;;;;;;;1999.90;999.90;;;;;;;18.13;100.00;99882.06;5055575;28;20056;-55
2022/08/13 02:11:36;;;;;;;1999.90;999.90;;;;;;;18.16;100.00;99875.75;5053532;28;20076;-54
2022/08/13 02:14:22;;;;;;;1999.90;999.90;;;;;;;17.98;100.00;99814.03;5053728;28;20075;-54
2022/08/13 02:17:24;;;;;;;1999.90;999.90;;;;;;;18.38;100.00;99875.41;5054005;28;20076;-55
2022/08/13 02:20:28;;;;;;;1999.90;999.90;;;;;;;18.44;100.00;99865.31;5054530;28;20128;-54
2022/08/13 02:23:33;;;;;;;1999.90;999.90;;;;;;;18.40;100.00;99860.28;5053228;28;20076;-54
2022/08/13 02:26:18;;;;;;;1999.90;999.90;;;;;;;18.34;100.00;99857.97;5053905;28;20038;-54
2022/08/13 02:29:05;;;;;;;1999.90;999.90;;;;;;;18.15;100.00;99853.69;5054020;28;20346;-54
2022/08/13 02:31:50;;;;;;;1999.90;999.90;;;;;;;18.29;100.00;99858.22;5053068;28;20052;-56
2022/08/13 02:34:35;;;;;;;1999.90;999.90;;;;;;;18.37;100.00;99855.16;5053240;28;20072;-54
2022/08/13 02:37:22;;;;;;;1999.90;999.90;;;;;;;18.34;100.00;99861.47;5054227;28;20128;-56
2022/08/13 02:41:38;;;;;;;1999.90;999.90;;;;;;;18.18;100.00;99856.16;5052945;28;20064;-53
2022/08/13 02:43:12;;;;;;;1999.90;999.90;;;;;;;18.16;100.00;99851.88;5053477;28;20080;-52
2022/08/13 02:45:58;;;;;;;1999.90;999.90;;;;;;;18.16;100.00;99852.72;5053648;28;20048;-54
2022/08/13 02:48:43;;;;;;;1999.90;999.90;;;;;;;18.19;100.00;99855.22;5052904;28;20056;-52
2022/08/13 02:51:29;;;;;;;1999.90;999.90;;;;;;;18.29;100.00;99857.34;5054254;28;20048;-54
2022/08/13 02:54:20;;;;;;;1999.90;999.90;;;;;;;18.20;100.00;99858.75;5053841;28;20063;-53
2022/08/13 02:57:06;;;;;;;1999.90;999.90;;;;;;;18.31;100.00;99858.13;5055794;28;20637;-56
2022/08/13 02:59:50;;;;;;;1999.90;999.90;;;;;;;18.26;100.00;99855.72;5057499;28;20135;-54
2022/08/13 03:02:42;;;;;;;1999.90;999.90;;;;;;;18.18;100.00;99856.16;5057046;28;20083;-56
2022/08/13 03:05:30;;;;;;;1999.90;999.90;;;;;;;18.16;100.00;99852.72;5058119;28;20051;-55
2022/08/13 03:08:15;;;;;;;1999.90;999.90;;;;;;;18.25;100.00;99851.38;5059421;28;20063;-55
2022/08/13 03:11:00;;;;;;;1999.90;999.90;;;;;;;18.28;100.00;99843.25;5056706;28;20098;-55
2022/08/13 03:13:51;;;;;;;1999.90;999.90;;;;;;;18.34;100.00;99850.88;5057738;28;20075;-55
2022/08/13 03:16:39;;;;;;;1999.90;999.90;;;;;;;18.19;100.00;99847.25;5055478;28;20041;-54
2022/08/13 03:19:24;;;;;;;1999.90;999.90;;;;;;;17.95;100.00;99843.34;5056931;28;20060;-54
2022/08/13 03:22:09;;;;;;;1999.90;999.90;;;;;;;18.19;100.00;99841.13;5057155;28;20410;-54
2022/08/13 03:24:54;;;;;;;1999.90;999.90;;;;;;;18.18;100.00;99848.22;5056667;28;20072;-55
2022/08/13 03:27:39;;;;;;;1999.90;999.90;;;;;;;18.13;100.00;99842.31;5058835;28;20139;-54
2022/08/13 03:30:24;;;;;;;1999.90;999.90;;;;;;;18.19;100.00;99843.75;5057760;28;20059;-53
2022/08/13 03:33:11;;;;;;;1999.90;999.90;;;;;;;18.20;100.00;99842.84;5058964;28;20056;-54
2022/08/13 03:35:56;;;;;;;1999.90;999.90;;;;;;;18.14;100.00;99835.22;5054406;28;20052;-55
2022/08/13 03:38:40;;;;;;;1999.90;999.90;;;;;;;18.22;100.00;99835.63;5056491;28;20442;-54
2022/08/13 03:41:26;;;;;;;1999.90;999.90;;;;;;;18.08;100.00;99839.06;5057835;28;20053;-55
2022/08/13 03:44:10;;;;;;;1999.90;999.90;;;;;;;18.03;100.00;99827.84;5055899;28;20443;-54
2022/08/13 03:46:55;;;;;;;1999.90;999.90;;;;;;;18.27;100.00;99838.91;5057567;28;20075;-54
2022/08/13 03:49:40;;;;;;;1999.90;999.90;;;;;;;18.22;100.00;99833.00;5052189;28;20174;-55
2022/08/13 03:52:25;;;;;;;1999.90;999.90;;;;;;;18.10;100.00;99837.19;5053774;28;20044;-55
2022/08/13 03:55:11;;;;;;;1999.90;999.90;;;;;;;18.24;100.00;99841.72;5054233;28;20812;-53
2022/08/13 03:57:57;;;;;;;1999.90;999.90;;;;;;;18.17;100.00;99833.25;5055171;28;20138;-55
2022/08/13 04:00:47;;;;;;;1999.90;999.90;;;;;;;18.38;100.00;99830.34;5054093;28;20048;-54
2022/08/13 04:03:36;;;;;;;1999.90;999.90;;;;;;;18.20;100.00;99833.09;5058501;28;20506;-56
2022/08/13 04:06:23;;;;;;;1999.90;999.90;;;;;;;18.29;100.00;99815.78;5057388;28;20064;-54
2022/08/13 04:09:07;;;;;;;1999.90;999.90;;;;;;;18.36;100.00;99825.13;5054534;28;20075;-54
2022/08/13 04:11:52;;;;;;;1999.90;999.90;;;;;;;18.46;100.00;99836.06;5058085;28;20506;-53
2022/08/13 04:14:39;;;;;;;1999.90;999.90;;;;;;;18.45;100.00;99837.00;5054955;28;20081;-55
2022/08/13 04:17:23;;;;;;;1999.90;999.90;;;;;;;18.23;100.00;99834.69;5055163;28;20078;-55
2022/08/13 04:20:10;;;;;;;1999.90;999.90;;;;;;;18.30;100.00;99828.13;5055044;28;20048;-54
2022/08/13 04:22:55;;;;;;;1999.90;999.90;;;;;;;18.34;100.00;99834.97;5054000;28;20118;-55
2022/08/13 04:25:41;;;;;;;1999.90;999.90;;;;;;;18.27;100.00;99828.31;5053961;28;20048;-55
2022/08/13 04:28:26;;;;;;;1999.90;999.90;;;;;;;18.34;100.00;99834.97;5053122;28;20047;-52
2022/08/13 04:31:11;;;;;;;1999.90;999.90;;;;;;;18.25;100.00;99838.13;5054860;28;20060;-55
2022/08/13 04:33:55;;;;;;;1999.90;999.90;;;;;;;18.36;100.00;99834.84;5051693;28;20063;-53
2022/08/13 04:36:39;;;;;;;1999.90;999.90;;;;;;;18.34;100.00;99837.59;5054501;28;20522;-54
2022/08/13 04:39:24;;;;;;;1999.90;999.90;;;;;;;18.22;100.00;99836.50;5052400;28;20047;-53
2022/08/13 04:42:11;;;;;;;1999.90;999.90;;;;;;;18.24;100.00;99832.91;5054742;28;20383;-55
2022/08/13 04:44:56;;;;;;;1999.90;999.90;;;;;;;18.22;100.00;99841.78;5051581;28;21020;-55
2022/08/13 04:47:42;;;;;;;1999.90;999.90;;;;;;;18.27;100.00;99838.06;5049627;28;20041;-56
2022/08/13 04:50:31;;;;;;;1999.90;999.90;;;;;;;18.38;100.00;99835.63;5052869;28;20056;-55
2022/08/13 04:53:28;;;;;;;1999.90;999.90;;;;;;;18.32;100.00;99838.63;5052586;28;20083;-52
2022/08/13 04:56:13;;;;;;;1999.90;999.90;;;;;;;18.33;100.00;99850.94;5053417;28;20073;-54
2022/08/13 04:58:57;;;;;;;1999.90;999.90;;;;;;;18.16;100.00;99841.28;5053072;28;20083;-55
2022/08/13 05:01:42;;;;;;;1999.90;999.90;;;;;;;18.38;100.00;99832.97;5051811;28;20055;-55
2022/08/13 05:04:27;;;;;;;1999.90;999.90;;;;;;;18.41;100.00;99835.47;5053179;28;20055;-52
2022/08/13 05:07:11;;;;;;;1999.90;999.90;;;;;;;18.43;100.00;99831.78;5052222;28;20048;-56
2022/08/13 05:09:56;;;;;;;1999.90;999.90;;;;;;;18.54;100.00;99833.81;5052647;28;20049;-55
2022/08/13 05:12:40;;;;;;;1999.90;999.90;;;;;;;18.69;100.00;99830.28;5052109;28;20160;-53
2022/08/13 05:15:25;;;;;;;1999.90;999.90;;;;;;;18.46;100.00;99841.38;5053215;28;20173;-56
2022/08/13 05:18:10;;;;;;;1999.90;999.90;;;;;;;18.61;100.00;99840.47;5051155;28;20079;-55
2022/08/13 05:20:57;;;;;;;1999.90;999.90;;;;;;;18.54;100.00;99841.78;5049521;28;20083;-54
2022/08/13 05:23:42;;;;;;;1999.90;999.90;;;;;;;18.40;100.00;99839.06;5052530;28;20067;-54
2022/08/13 05:26:31;;;;;;;1999.90;999.90;;;;;;;18.58;100.00;99840.66;5051131;28;20617;-55
2022/08/13 05:29:15;;;;;;;1999.90;999.90;;;;;;;18.54;100.00;99833.81;5050301;28;20067;-53
2022/08/13 05:32:00;;;;;;;1999.90;999.90;;;;;;;18.35;100.00;99831.34;5050317;28;20419;-55
2022/08/13 05:34:44;;;;;;;1999.90;999.90;;;;;;;18.54;100.00;99825.00;5051653;28;20060;-54
2022/08/13 05:37:29;;;;;;;1999.90;999.90;;;;;;;18.57;100.00;99823.03;5053242;28;20045;-55
2022/08/13 05:40:14;;;;;;;1999.90;999.90;;;;;;;18.62;100.00;99813.03;5050962;28;20079;-52
2022/08/13 05:42:59;;;;;;;1999.90;999.90;;;;;;;18.69;100.00;99824.13;5050754;28;20449;-54
2022/08/13 05:45:48;;;;;;;1999.90;999.90;;;;;;;18.70;100.00;99823.19;5049278;28;20064;-54
2022/08/13 05:48:35;;;;;;;1999.90;999.90;;;;;;;18.77;100.00;99821.06;5049606;28;20049;-55
2022/08/13 05:51:19;;;;;;;1999.90;999.90;;;;;;;18.71;100.00;99819.56;5049061;28;20041;-52
2022/08/13 05:54:04;;;;;;;1999.90;999.90;;;;;;;18.72;100.00;99823.06;5050725;28;20048;-54
2022/08/13 05:56:49;;;;;;;1999.90;999.90;;;;;;;18.58;100.00;99826.53;5052152;28;20067;-55
2022/08/13 06:05:46;;;;;;;1999.90;999.90;;;;;;;19.02;100.00;99815.16;5053955;28;20060;-53
2022/08/13 06:08:37;;;;;;;1999.90;999.90;;;;;;;18.88;100.00;99816.84;5051616;28;20537;-54
2022/08/13 06:11:22;;;;;;;1999.90;999.90;;;;;;;18.86;100.00;99808.09;5051164;28;20557;-53
2022/08/13 06:14:06;;;;;;;1999.90;999.90;;;;;;;18.76;100.00;99822.00;5053059;28;20162;-53
2022/08/13 06:16:52;;;;;;;1999.90;999.90;;;;;;;18.85;100.00;99824.13;5051964;28;20060;-54
2022/08/13 06:19:37;;;;;;;1999.90;999.90;;;;;;;18.83;100.00;99818.88;5050972;28;20751;-53
2022/08/13 06:22:23;;;;;;;1999.90;999.90;;;;;;;18.79;100.00;99827.97;5051465;28;20114;-53
2022/08/13 06:25:07;;;;;;;1999.90;999.90;;;;;;;18.65;100.00;99834.06;5054963;28;20782;-53
2022/08/13 06:27:52;;;;;;;1999.90;999.90;;;;;;;18.79;100.00;99829.78;5049864;28;20090;-55
2022/08/13 06:30:40;;;;;;;1999.90;999.90;;;;;;;18.90;100.00;99827.34;5051447;28;20056;-54
2022/08/13 06:33:26;;;;;;;1999.90;999.90;;;;;;;18.61;100.00;99826.34;5048642;28;20056;-55
2022/08/13 06:36:14;;;;;;;1999.90;999.90;;;;;;;18.85;100.00;99821.47;5049382;28;21479;-54
2022/08/13 06:39:02;;;;;;;1999.90;999.90;;;;;;;19.11;100.00;99812.81;5052934;28;20075;-54
2022/08/13 06:41:48;;;;;;;1999.90;999.90;;;;;;;19.17;100.00;99810.72;5045377;28;20122;-54
2022/08/13 06:44:35;;;;;;;1999.90;999.90;;;;;;;19.22;100.00;99813.94;5044643;28;20075;-56
2022/08/13 06:47:22;;;;;;;1999.90;999.90;;;;;;;19.06;100.00;99812.22;5049779;28;20776;-54
2022/08/13 06:50:10;;;;;;;1999.90;999.90;;;;;;;18.96;100.00;99816.38;5047858;28;20147;-55
2022/08/13 06:52:56;;;;;;;1999.90;999.90;;;;;;;19.21;100.00;99817.56;5051207;28;20060;-56
2022/08/13 06:55:42;;;;;;;1999.90;999.90;;;;;;;19.11;100.00;99814.59;5051933;28;20143;-56
2022/08/13 06:58:28;;;;;;;1999.90;999.90;;;;;;;19.06;100.00;99825.47;5052723;28;20059;-58
2022/08/13 07:01:18;;;;;;;1999.90;999.90;;;;;;;19.07;100.00;99823.69;5051766;28;20975;-56
2022/08/13 07:04:02;;;;;;;1999.90;999.90;;;;;;;19.03;100.00;99823.00;5051242;28;20175;-56
2022/08/13 07:06:47;;;;;;;1999.90;999.90;;;;;;;19.18;100.00;99817.75;5052587;28;20075;-56
2022/08/13 07:09:32;;;;;;;1999.90;999.90;;;;;;;18.99;100.00;99820.66;5054302;28;20051;-56
2022/08/13 07:12:17;;;;;;;1999.90;999.90;;;;;;;19.10;100.00;99813.72;5055174;28;20084;-56
2022/08/13 07:15:02;;;;;;;1999.90;999.90;;;;;;;19.30;100.00;99799.28;5054023;28;20071;-57
2022/08/13 07:17:48;;;;;;;1999.90;999.90;;;;;;;19.54;100.00;99818.13;5052899;28;20141;-55
2022/08/13 07:20:32;;;;;;;1999.90;999.90;;;;;;;19.53;100.00;99812.91;5057421;28;20039;-56
2022/08/13 07:23:16;;;;;;;1999.90;999.90;;;;;;;19.64;100.00;99817.59;5058048;28;20075;-56
2022/08/13 07:26:02;;;;;;;1999.90;999.90;;;;;;;19.62;100.00;99810.53;5054405;28;20193;-56
2022/08/13 07:28:50;;;;;;;1999.90;999.90;;;;;;;19.76;100.00;99809.72;5056453;28;20831;-56
2022/08/13 07:31:45;;;;;;;1999.90;999.90;;;;;;;19.98;100.00;99793.25;5053187;28;20095;-54
2022/08/13 07:34:32;;;;;;;1999.90;999.90;;;;;;;20.13;100.00;99810.03;5056039;28;20053;-56
2022/08/13 07:37:21;;;;;;;1999.90;999.90;;;;;;;19.84;100.00;99814.53;5055903;28;20041;-56
2022/08/13 07:40:08;;;;;;;1999.90;999.90;;;;;;;19.85;100.00;99818.91;5056634;28;20517;-54
2022/08/13 07:42:54;;;;;;;1999.90;999.90;;;;;;;19.65;100.00;99825.47;5055795;28;20051;-53
2022/08/13 07:45:41;;;;;;;1999.90;999.90;;;;;;;19.79;100.00;99827.25;5055160;28;20086;-58
2022/08/13 07:48:27;;;;;;;1999.90;999.90;;;;;;;19.75;100.00;99828.41;5053319;28;20059;-54
2022/08/13 07:51:18;;;;;;;1999.90;999.90;;;;;;;19.71;100.00;99827.75;5057999;28;20047;-58
2022/08/13 07:54:06;;;;;;;1999.90;999.90;;;;;;;20.02;100.00;99820.50;5054676;28;20083;-55
2022/08/13 07:56:53;;;;;;;1999.90;999.90;;;;;;;19.93;100.00;99824.59;5053216;28;20106;-54
2022/08/13 07:59:38;;;;;;;1999.90;999.90;;;;;;;19.90;100.00;99835.41;5067961;28;20483;-55
2022/08/13 08:02:26;;;;;;;1999.90;999.90;;;;;;;19.93;100.00;99835.22;5053912;28;20056;-57
2022/08/13 08:05:13;;;;;;;1999.90;999.90;;;;;;;19.79;100.00;99835.22;5053050;28;20040;-55
2022/08/13 08:08:00;;;;;;;1999.90;999.90;;;;;;;20.07;100.00;99834.34;5055623;28;20069;-55
2022/08/13 08:10:46;;;;;;;1999.90;999.90;;;;;;;20.09;100.00;99837.78;5054610;28;20040;-56
2022/08/13 08:13:32;;;;;;;1999.90;999.90;;;;;;;20.02;100.00;99842.63;5053945;28;20091;-55
2022/08/13 08:16:17;;;;;;;1999.90;999.90;;;;;;;20.07;100.00;99844.97;5052740;28;20048;-55
2022/08/13 08:19:03;;;;;;;1999.90;999.90;;;;;;;20.14;100.00;99835.66;5054396;28;20041;-56
2022/08/13 08:21:48;;;;;;;1999.90;999.90;;;;;;;20.15;100.00;99841.81;5054077;28;20395;-55
2022/08/13 08:24:34;;;;;;;1999.90;999.90;;;;;;;20.20;100.00;99831.75;5055184;28;20072;-54
2022/08/13 08:27:23;;;;;;;1999.90;999.90;;;;;;;20.15;100.00;99826.75;5052593;28;20744;-55
2022/08/13 08:30:08;;;;;;;1999.90;999.90;;;;;;;19.83;100.00;99829.63;5052682;28;20055;-54
2022/08/13 08:32:53;;;;;;;1999.90;999.90;;;;;;;20.21;100.00;99834.28;5053222;28;20056;-55
2022/08/13 08:35:38;;;;;;;1999.90;999.90;;;;;;;20.21;100.00;99831.63;5052267;28;20070;-56
2022/08/13 08:44:32;;;;;;;1999.90;999.90;;;;;;;20.52;100.00;99827.88;5053635;28;20467;-56
2022/08/13 08:47:16;;;;;;;1999.90;999.90;;;;;;;20.43;100.00;99846.22;5051584;28;20134;-55
2022/08/13 08:50:02;;;;;;;1999.90;999.90;;;;;;;20.40;100.00;99846.41;5053343;28;20467;-56
2022/08/13 08:55:54;;;;;;;1999.90;999.90;;;;;;;20.16;100.00;99836.41;5052546;28;20044;-56
2022/08/13 08:58:40;;;;;;;1999.90;999.90;;;;;;;20.24;100.00;99841.22;5051923;28;20463;-54
2022/08/13 09:01:25;;;;;;;1999.90;999.90;;;;;;;20.34;100.00;99833.50;5050758;28;20043;-55
2022/08/13 09:04:13;;;;;;;1999.90;999.90;;;;;;;20.07;100.00;99835.19;5054660;28;20053;-56
2022/08/13 09:06:58;;;;;;;1999.90;999.90;;;;;;;20.36;100.00;99832.47;5056174;28;20090;-54
2022/08/13 09:09:43;;;;;;;1999.90;999.90;;;;;;;20.40;100.00;99833.97;5052012;28;20048;-54
2022/08/13 09:12:28;;;;;;;1999.90;999.90;;;;;;;20.41;100.00;99827.72;5057449;28;20040;-56
2022/08/13 09:15:17;;;;;;;1999.90;999.90;;;;;;;20.55;100.00;99837.47;5059098;28;20057;-54
2022/08/13 09:18:02;;;;;;;1999.90;999.90;;;;;;;20.51;100.00;99834.16;5059699;28;20048;-56
2022/08/13 09:20:48;;;;;;;1999.90;999.90;;;;;;;20.34;100.00;99823.72;5059880;28;20060;-56
2022/08/13 09:23:34;;;;;;;1999.90;999.90;;;;;;;20.53;100.00;99839.38;5058791;28;20491;-55
2022/08/13 09:26:20;;;;;;;1999.90;999.90;;;;;;;20.35;100.00;99837.91;5056382;28;20045;-55
2022/08/13 09:29:05;;;;;;;1999.90;999.90;;;;;;;20.84;100.00;99832.03;5054613;28;20092;-56
2022/08/13 09:31:50;;;;;;;1999.90;999.90;;;;;;;20.74;100.00;99843.28;5056049;28;20605;-55
2022/08/13 09:34:37;;;;;;;1999.90;999.90;;;;;;;20.86;100.00;99838.94;5058079;28;20068;-54
2022/08/13 09:37:23;;;;;;;1999.90;999.90;;;;;;;20.92;100.00;99838.50;5054523;28;20037;-55
2022/08/13 09:40:11;;;;;;;1999.90;999.90;;;;;;;21.15;100.00;99839.63;5052337;28;20056;-54
2022/08/13 09:43:01;;;;;;;1999.90;999.90;;;;;;;21.21;100.00;99830.38;5052941;28;20118;-55
2022/08/13 09:45:45;;;;;;;1999.90;999.90;;;;;;;21.34;100.00;99836.53;5051888;28;20056;-53
2022/08/13 09:48:30;;;;;;;1999.90;999.90;;;;;;;21.13;100.00;99833.56;5052871;28;20669;-54
2022/08/13 09:51:14;;;;;;;1999.90;999.90;;;;;;;21.46;100.00;99833.06;5055016;28;20125;-54
2022/08/13 09:53:59;;;;;;;1999.90;999.90;;;;;;;21.86;100.00;99827.56;5051276;28;20083;-56
2022/08/13 09:56:47;;;;;;;1999.90;999.90;;;;;;;21.81;100.00;99818.22;5052506;28;20048;-54
2022/08/13 09:59:33;;;;;;;1999.90;999.90;;;;;;;22.36;100.00;99816.91;5054290;28;20067;-54
2022/08/13 10:02:17;;;;;;;1999.90;999.90;;;;;;;22.64;100.00;99808.53;5051306;28;20048;-53
2022/08/13 10:05:01;;;;;;;1999.90;999.90;;;;;;;22.34;100.00;99810.84;5050990;28;20048;-56
2022/08/13 10:07:46;;;;;;;1999.90;999.90;;;;;;;22.67;100.00;99803.94;5048018;28;20766;-56
2022/08/13 10:10:31;;;;;;;1999.90;999.90;;;;;;;22.27;100.00;99804.25;5051197;28;20099;-56
2022/08/13 10:13:15;;;;;;;1999.90;999.90;;;;;;;22.15;100.00;99800.63;5053746;28;20049;-55
2022/08/13 10:16:00;;;;;;;1999.90;999.90;;;;;;;22.54;100.00;99801.34;5052261;28;20052;-56
2022/08/13 10:18:46;;;;;;;1999.90;999.90;;;;;;;22.81;100.00;99798.41;5049619;28;20314;-55
2022/08/13 10:21:31;;;;;;;1999.90;999.90;;;;;;;22.75;100.00;99794.41;5048354;28;20090;-53
2022/08/13 10:24:15;;;;;;;1999.90;999.90;;;;;;;23.10;100.00;99789.03;5049734;28;20582;-54
2022/08/13 10:27:00;;;;;;;1999.90;999.90;;;;;;;23.14;100.00;99792.34;5055681;28;20079;-55
2022/08/13 10:29:45;;;;;;;1999.90;999.90;;;;;;;22.98;100.00;99783.81;5059598;28;20068;-53
2022/08/13 10:32:29;;;;;;;1999.90;999.90;;;;;;;23.01;100.00;99776.41;5058894;28;20611;-54
2022/08/13 10:35:17;;;;;;;1999.90;999.90;;;;;;;23.26;100.00;99770.00;5057262;28;20044;-54
2022/08/13 10:38:02;;;;;;;1999.90;999.90;;;;;;;23.02;100.00;99767.44;5056159;28;20048;-56
2022/08/13 10:40:47;;;;;;;1999.90;999.90;;;;;;;23.35;100.00;99771.09;5059157;28;20045;-55
2022/08/13 10:43:32;;;;;;;1999.90;999.90;;;;;;;23.50;100.00;99764.56;5053791;28;20044;-54
2022/08/13 10:46:17;;;;;;;1999.90;999.90;;;;;;;23.25;100.00;99760.28;5058178;28;20048;-55
2022/08/13 10:49:02;;;;;;;1999.90;999.90;;;;;;;23.57;100.00;99759.56;5059866;28;20064;-54
2022/08/13 10:51:46;;;;;;;1999.90;999.90;;;;;;;23.62;100.00;99753.84;5062696;28;20130;-53
2022/08/13 10:54:33;;;;;;;1999.90;999.90;;;;;;;23.58;100.00;99755.06;5059646;28;20053;-55
2022/08/13 10:57:17;;;;;;;1999.90;999.90;;;;;;;23.69;100.00;99753.28;5058387;28;20064;-53
2022/08/13 11:00:05;;;;;;;1999.90;999.90;;;;;;;23.25;100.00;99744.25;5060606;28;20040;-56
2022/08/13 11:02:50;;;;;;;1999.90;999.90;;;;;;;23.95;100.00;99751.16;5059835;28;20071;-56
2022/08/13 11:05:35;;;;;;;1999.90;999.90;;;;;;;23.48;100.00;99745.09;5061880;28;20064;-54
2022/08/13 11:08:20;;;;;;;1999.90;999.90;;;;;;;24.61;100.00;99737.69;5060870;28;20082;-55
2022/08/13 11:11:06;;;;;;;1999.90;999.90;;;;;;;25.39;100.00;99719.41;5057780;28;20041;-54
2022/08/13 11:13:51;;;;;;;1999.90;999.90;;;;;;;25.02;100.00;99727.06;5052045;28;20049;-53
2022/08/13 11:19:25;;;;;;;1999.90;999.90;;;;;;;24.00;100.00;99719.53;5053672;28;20079;-56
2022/08/13 11:22:09;;;;;;;1999.90;999.90;;;;;;;24.08;100.00;99718.91;5054319;28;20082;-55
2022/08/13 11:24:56;;;;;;;1999.90;999.90;;;;;;;24.26;100.00;99712.00;5054848;28;20044;-56
2022/08/13 11:27:40;;;;;;;1999.90;999.90;;;;;;;24.59;100.00;99710.19;5055929;28;20403;-54
2022/08/13 11:30:25;;;;;;;1999.90;999.90;;;;;;;24.21;100.00;99716.91;5055390;28;20059;-53
2022/08/13 11:33:10;;;;;;;1999.90;999.90;;;;;;;24.30;100.00;99715.28;5056381;28;20053;-55
2022/08/13 11:35:54;;;;;;;1999.90;999.90;;;;;;;24.73;100.00;99711.69;5054190;28;20132;-54
2022/08/13 11:38:38;;;;;;;1999.90;999.90;;;;;;;24.12;100.00;99730.22;5055723;28;20114;-55
2022/08/13 11:41:23;;;;;;;1999.90;999.90;;;;;;;24.51;100.00;99723.38;5056022;28;20087;-57
2022/08/13 11:44:07;;;;;;;1999.90;999.90;;;;;;;24.43;100.00;99720.50;5058959;28;20134;-54
2022/08/13 11:46:51;;;;;;;1999.90;999.90;;;;;;;24.64;100.00;99713.34;5059380;28;20036;-55
2022/08/13 11:49:36;;;;;;;1999.90;999.90;;;;;;;24.25;100.00;99723.72;5061816;28;20102;-56
2022/08/13 11:52:20;;;;;;;1999.90;999.90;;;;;;;24.33;100.00;99720.38;5057794;28;20056;-56
2022/08/13 11:55:05;;;;;;;1999.90;999.90;;;;;;;24.29;100.00;99721.63;5056622;28;20048;-53
2022/08/13 11:58:05;;;;;;;1999.90;999.90;;;;;;;24.17;100.00;99725.31;5059759;28;20102;-53
2022/08/13 12:00:54;;;;;;;1999.90;999.90;;;;;;;23.67;100.00;99708.91;5060158;28;20557;-54
2022/08/13 12:03:41;;;;;;;1999.90;999.90;;;;;;;23.97;100.00;99697.53;5059006;28;20145;-54
2022/08/13 12:06:26;;;;;;;1999.90;999.90;;;;;;;24.50;100.00;99700.25;5056341;28;20744;-56
2022/08/13 12:09:10;;;;;;;1999.90;999.90;;;;;;;24.31;100.00;99700.94;5055775;28;20462;-54
2022/08/13 12:11:55;;;;;;;1999.90;999.90;;;;;;;24.14;100.00;99686.28;5056190;28;20048;-53
2022/08/13 12:14:39;;;;;;;1999.90;999.90;;;;;;;23.89;100.00;99687.47;5055981;28;20066;-56
2022/08/13 12:17:24;;;;;;;1999.90;999.90;;;;;;;24.07;100.00;99682.41;5057590;28;20117;-56
2022/08/13 12:20:11;;;;;;;1999.90;999.90;;;;;;;24.24;100.00;99691.72;5057367;28;20423;-54
2022/08/13 12:22:59;;;;;;;1999.90;999.90;;;;;;;24.36;100.00;99689.84;5057371;28;20076;-54
2022/08/13 12:25:44;;;;;;;1999.90;999.90;;;;;;;24.26;100.00;99693.28;5057710;28;20060;-53
2022/08/13 12:28:29;;;;;;;1999.90;999.90;;;;;;;24.25;100.00;99690.75;5057454;28;20090;-54
2022/08/13 12:31:14;;;;;;;1999.90;999.90;;;;;;;24.31;100.00;99695.59;5054263;28;20052;-54
2022/08/13 12:33:58;;;;;;;1999.90;999.90;;;;;;;24.23;100.00;99709.59;5053043;28;20049;-54
2022/08/13 12:36:43;;;;;;;1999.90;999.90;;;;;;;24.31;100.00;99716.13;5052703;28;20558;-52